createdAt,value
2023-02-06T00:01:33.845Z,58.87
2023-02-06T00:04:01.908Z,58.92
2023-02-06T00:06:30.033Z,58.85
2023-02-06T00:08:58.057Z,58.98
2023-02-06T00:11:26.195Z,59.02
2023-02-06T00:13:54.748Z,58.96
2023-02-06T00:16:24.479Z,58.93
2023-02-06T00:18:54.709Z,59.03
2023-02-06T00:21:25.785Z,59.19
2023-02-06T00:23:55.734Z,59.04
2023-02-06T00:26:24.312Z,59.05
2023-02-06T00:28:52.628Z,59.10
2023-02-06T00:31:20.761Z,59.08
2023-02-06T00:33:48.875Z,59.00
2023-02-06T00:36:18.624Z,59.01
2023-02-06T00:38:46.713Z,58.92
2023-02-06T00:41:15.217Z,58.92
2023-02-06T00:43:43.580Z,58.90
2023-02-06T00:46:11.836Z,58.89
2023-02-06T00:48:39.917Z,58.87
2023-02-06T00:51:07.924Z,58.98
2023-02-06T00:53:39.956Z,58.93
2023-02-06T00:56:08.281Z,58.99
2023-02-06T00:58:36.328Z,59.10
2023-02-06T01:01:04.715Z,59.07
2023-02-06T01:03:32.780Z,59.18
2023-02-06T01:06:00.827Z,59.25
2023-02-06T01:08:28.964Z,59.32
2023-02-06T01:10:58.466Z,59.35
2023-02-06T01:13:26.538Z,59.37
2023-02-06T01:15:54.554Z,59.38
2023-02-06T01:18:23.129Z,59.29
2023-02-06T01:20:51.141Z,59.34
2023-02-06T01:23:19.236Z,59.51
2023-02-06T01:25:47.265Z,59.67
2023-02-06T01:28:18.564Z,59.67
2023-02-06T01:30:48.032Z,59.64
2023-02-06T01:33:16.093Z,59.67
2023-02-06T01:35:45.056Z,59.74
2023-02-06T01:38:13.115Z,59.68
2023-02-06T01:40:41.124Z,59.66
2023-02-06T01:43:19.536Z,59.23
2023-02-06T01:45:47.989Z,59.71
2023-02-06T01:48:20.037Z,59.64
2023-02-06T01:50:52.455Z,59.57
2023-02-06T01:53:23.503Z,59.69
2023-02-06T01:55:53.636Z,59.69
2023-02-06T01:58:29.080Z,59.35
2023-02-06T02:00:58.640Z,59.62
2023-02-06T02:03:27.738Z,59.62
2023-02-06T02:06:01.165Z,59.44
2023-02-06T02:08:33.976Z,59.29
2023-02-06T02:11:05.004Z,59.33
2023-02-06T02:13:36.555Z,59.23
2023-02-06T02:16:13.963Z,58.90
2023-02-06T02:18:54.739Z,58.78
2023-02-06T02:22:11.609Z,58.65
2023-02-06T02:25:05.447Z,58.51
2023-02-06T02:27:59.028Z,58.47
2023-02-06T02:30:52.321Z,58.39
2023-02-06T02:33:42.346Z,58.35
2023-02-06T02:36:16.335Z,58.58
2023-02-06T02:38:55.181Z,58.41
2023-02-06T02:41:29.748Z,58.66
2023-02-06T02:44:05.595Z,58.88
2023-02-06T02:46:37.913Z,58.97
2023-02-06T02:49:10.362Z,58.85
2023-02-06T02:51:41.515Z,58.83
2023-02-06T02:54:10.142Z,58.93
2023-02-06T02:56:38.516Z,58.96
2023-02-06T02:59:10.740Z,58.99
2023-02-06T03:01:43.877Z,59.06
2023-02-06T03:04:17.438Z,59.11
2023-02-06T03:06:58.671Z,58.77
2023-02-06T03:09:40.402Z,58.81
2023-02-06T03:12:13.664Z,59.07
2023-02-06T03:14:47.830Z,59.05
2023-02-06T03:17:24.060Z,59.21
2023-02-06T03:19:56.093Z,59.36
2023-02-06T03:22:26.850Z,59.36
2023-02-06T03:24:56.621Z,59.55
2023-02-06T03:27:28.026Z,59.41
2023-02-06T03:29:57.228Z,59.28
2023-02-06T03:32:28.856Z,58.93
2023-02-06T03:35:02.600Z,58.83
2023-02-06T03:37:32.711Z,58.87
2023-02-06T03:40:02.491Z,58.80
2023-02-06T03:42:32.211Z,58.77
2023-02-06T03:45:06.910Z,58.71
2023-02-06T03:47:36.805Z,58.86
2023-02-06T03:50:06.161Z,58.96
2023-02-06T03:52:40.550Z,58.86
2023-02-06T03:55:13.770Z,58.93
2023-02-06T03:57:45.534Z,58.98
2023-02-06T04:00:14.893Z,59.09
2023-02-06T04:02:46.104Z,59.15
2023-02-06T04:05:14.567Z,59.16
2023-02-06T04:07:44.083Z,59.20
2023-02-06T04:10:12.604Z,59.29
2023-02-06T04:12:40.704Z,59.35
2023-02-06T04:15:09.373Z,59.37
2023-02-06T04:17:53.490Z,59.43
2023-02-06T04:20:22.210Z,59.49
2023-02-06T04:22:51.670Z,59.50
2023-02-06T04:25:19.914Z,59.51
2023-02-06T04:27:47.971Z,59.49
2023-02-06T04:30:17.970Z,59.46
2023-02-06T04:32:46.197Z,59.43
2023-02-06T04:35:14.288Z,59.57
2023-02-06T04:37:42.384Z,59.58
2023-02-06T04:40:13.349Z,59.57
2023-02-06T04:42:41.434Z,59.55
2023-02-06T04:45:10.445Z,59.49
2023-02-06T04:47:38.481Z,59.48
2023-02-06T04:50:07.644Z,59.54
2023-02-06T04:52:35.753Z,59.52
2023-02-06T04:55:03.859Z,59.54
2023-02-06T04:57:33.273Z,59.67
2023-02-06T05:00:01.289Z,59.67
2023-02-06T05:02:29.390Z,59.60
2023-02-06T05:04:57.418Z,59.57
2023-02-06T05:07:25.660Z,59.55
2023-02-06T05:09:53.679Z,59.66
2023-02-06T05:12:21.764Z,59.80
2023-02-06T05:14:51.191Z,59.79
2023-02-06T05:17:19.216Z,59.84
2023-02-06T05:19:47.393Z,59.82
2023-02-06T05:22:15.453Z,59.77
2023-02-06T05:24:43.485Z,59.70
2023-02-06T05:27:11.563Z,59.69
2023-02-06T05:29:39.598Z,59.74
2023-02-06T05:32:09.038Z,59.93
2023-02-06T05:34:37.265Z,59.93
2023-02-06T05:37:05.287Z,59.83
2023-02-06T05:39:33.328Z,59.81
2023-02-06T05:42:01.355Z,59.83
2023-02-06T05:44:29.458Z,59.54
2023-02-06T05:46:57.516Z,59.67
2023-02-06T05:49:26.947Z,59.82
2023-02-06T05:51:55.128Z,59.92
2023-02-06T05:54:23.744Z,60.06
2023-02-06T05:56:51.832Z,60.04
2023-02-06T05:59:19.995Z,59.80
2023-02-06T06:01:48.057Z,59.86
2023-02-06T06:04:16.149Z,59.91
2023-02-06T06:06:45.583Z,59.81
2023-02-06T06:09:14.063Z,60.14
2023-02-06T06:11:42.190Z,60.02
2023-02-06T06:14:10.213Z,59.87
2023-02-06T06:16:38.444Z,59.85
2023-02-06T06:19:06.483Z,59.86
2023-02-06T06:21:35.001Z,59.82
2023-02-06T06:24:04.683Z,59.74
2023-02-06T06:26:32.761Z,59.69
2023-02-06T06:29:00.803Z,59.59
2023-02-06T06:31:28.897Z,59.42
2023-02-06T06:33:56.931Z,59.32
2023-02-06T06:36:24.976Z,59.22
2023-02-06T06:38:53.049Z,59.20
2023-02-06T06:41:22.447Z,59.18
2023-02-06T06:43:51.573Z,59.21
2023-02-06T06:46:20.024Z,59.32
2023-02-06T06:48:48.021Z,59.52
2023-02-06T06:51:16.073Z,59.81
2023-02-06T06:53:44.113Z,60.15
2023-02-06T06:56:14.525Z,60.86
2023-02-06T06:58:44.232Z,60.63
2023-02-06T07:01:12.299Z,60.57
2023-02-06T07:03:44.124Z,60.39
2023-02-06T07:06:12.699Z,60.27
2023-02-06T07:08:41.988Z,60.10
2023-02-06T07:11:10.487Z,59.94
2023-02-06T07:13:39.143Z,59.97
2023-02-06T07:16:09.694Z,60.04
2023-02-06T07:18:38.525Z,60.23
2023-02-06T07:21:08.749Z,60.54
2023-02-06T07:23:38.341Z,60.50
2023-02-06T07:26:06.970Z,60.36
2023-02-06T07:28:35.207Z,60.34
2023-02-06T07:31:03.883Z,60.25
2023-02-06T07:33:33.936Z,60.14
2023-02-06T07:36:03.844Z,60.13
2023-02-06T07:38:32.471Z,60.13
2023-02-06T07:41:02.598Z,60.09
2023-02-06T07:43:31.220Z,60.25
2023-02-06T07:46:00.998Z,60.47
2023-02-06T07:48:29.495Z,60.46
2023-02-06T07:50:59.130Z,60.64
2023-02-06T07:53:27.264Z,60.58
2023-02-06T07:55:55.537Z,60.53
2023-02-06T07:58:23.609Z,60.80
2023-02-06T08:00:51.623Z,61.09
2023-02-06T08:03:20.901Z,61.34
2023-02-06T08:05:49.075Z,61.79
2023-02-06T08:08:18.497Z,61.72
2023-02-06T08:10:46.547Z,61.71
2023-02-06T08:13:14.759Z,61.63
2023-02-06T08:15:43.232Z,61.60
2023-02-06T08:18:11.231Z,61.65
2023-02-06T08:20:39.765Z,61.55
2023-02-06T08:23:08.151Z,61.69
2023-02-06T08:25:37.935Z,61.73
2023-02-06T08:28:06.478Z,61.91
2023-02-06T08:30:34.819Z,62.02
2023-02-06T08:33:03.755Z,61.94
2023-02-06T08:35:32.994Z,61.86
2023-02-06T08:38:02.096Z,62.11
2023-02-06T08:40:30.121Z,62.02
2023-02-06T08:42:59.533Z,61.85
2023-02-06T08:45:27.594Z,61.85
2023-02-06T08:47:55.658Z,61.79
2023-02-06T08:50:23.709Z,61.81
2023-02-06T08:52:51.749Z,61.83
2023-02-06T08:55:20.054Z,61.86
2023-02-06T08:57:53.302Z,61.85
2023-02-06T09:00:23.467Z,61.83
2023-02-06T09:02:53.326Z,61.82
2023-02-06T09:05:21.869Z,61.72
2023-02-06T09:07:50.626Z,61.79
2023-02-06T09:10:27.169Z,61.84
2023-02-06T09:12:56.277Z,61.89
2023-02-06T09:15:25.710Z,61.73
2023-02-06T09:17:53.732Z,61.67
2023-02-06T09:20:22.557Z,61.70
2023-02-06T09:22:50.686Z,61.60
2023-02-06T09:25:18.819Z,61.57
2023-02-06T09:27:47.245Z,61.66
2023-02-06T09:30:15.953Z,61.54
2023-02-06T09:32:45.731Z,61.28
2023-02-06T09:35:13.836Z,61.31
2023-02-06T09:37:41.911Z,61.55
2023-02-06T09:40:13.422Z,61.50
2023-02-06T09:42:42.882Z,61.56
2023-02-06T09:45:16.196Z,61.93
2023-02-06T09:47:49.298Z,61.72
2023-02-06T09:50:24.217Z,62.05
2023-02-06T09:53:04.137Z,63.79
2023-02-06T09:55:39.940Z,63.29
2023-02-06T09:58:19.202Z,62.64
2023-02-06T10:00:52.696Z,59.66
2023-02-06T10:03:40.187Z,57.35
2023-02-06T10:06:17.867Z,55.05
2023-02-06T10:08:51.903Z,54.26
2023-02-06T10:11:26.676Z,53.94
2023-02-06T10:14:00.677Z,53.38
2023-02-06T10:16:37.860Z,53.31
2023-02-06T10:19:14.666Z,52.30
2023-02-06T10:21:47.471Z,51.27
2023-02-06T10:24:22.441Z,50.65
2023-02-06T10:26:53.609Z,51.38
2023-02-06T10:29:27.692Z,53.16
2023-02-06T10:32:09.918Z,54.03
2023-02-06T10:34:52.708Z,51.79
2023-02-06T10:37:47.843Z,49.82
2023-02-06T10:40:30.569Z,49.72
2023-02-06T10:43:04.351Z,48.12
2023-02-06T10:45:41.890Z,46.81
2023-02-06T10:48:20.322Z,45.70
2023-02-06T10:50:53.109Z,45.64
2023-02-06T10:53:25.220Z,42.16
2023-02-06T10:55:56.564Z,43.29
2023-02-06T10:58:28.421Z,41.25
2023-02-06T11:00:58.278Z,40.75
2023-02-06T11:03:30.507Z,39.84
2023-02-06T11:06:00.630Z,40.93
2023-02-06T11:08:31.516Z,42.05
2023-02-06T11:10:59.828Z,41.13
2023-02-06T11:13:30.672Z,41.94
2023-02-06T11:16:03.596Z,43.49
2023-02-06T11:18:34.558Z,42.27
2023-02-06T11:21:04.941Z,41.03
2023-02-06T11:23:35.052Z,42.96
2023-02-06T11:26:10.626Z,40.54
2023-02-06T11:28:42.268Z,40.45
2023-02-06T11:31:11.116Z,37.76
2023-02-06T11:33:49.081Z,38.36
2023-02-06T11:36:30.541Z,38.25
2023-02-06T11:39:01.433Z,39.81
2023-02-06T11:41:30.213Z,38.92
2023-02-06T11:44:02.702Z,39.79
2023-02-06T11:46:32.538Z,40.81
2023-02-06T11:49:07.585Z,40.59
2023-02-06T11:51:55.728Z,38.94
2023-02-06T11:54:28.276Z,36.05
2023-02-06T11:56:58.958Z,34.09
2023-02-06T11:59:27.492Z,33.49
2023-02-06T12:01:57.700Z,33.10
2023-02-06T12:04:32.089Z,34.76
2023-02-06T12:07:07.694Z,33.65
2023-02-06T12:09:35.792Z,34.29
2023-02-06T12:12:11.319Z,34.44
2023-02-06T12:14:43.510Z,34.37
2023-02-06T12:17:22.649Z,35.07
2023-02-06T12:19:56.666Z,36.45
2023-02-06T12:22:26.821Z,37.11
2023-02-06T12:24:57.528Z,38.37
2023-02-06T12:27:30.423Z,36.04
2023-02-06T12:30:02.904Z,36.14
2023-02-06T12:32:34.935Z,36.79
2023-02-06T12:35:15.485Z,37.24
2023-02-06T12:37:52.600Z,37.73
2023-02-06T12:40:31.951Z,35.01
2023-02-06T12:43:03.228Z,33.66
2023-02-06T12:45:41.228Z,33.36
2023-02-06T12:48:17.126Z,33.12
2023-02-06T12:50:49.795Z,33.32
2023-02-06T12:53:26.346Z,33.78
2023-02-06T12:56:00.810Z,34.53
2023-02-06T12:58:33.348Z,35.69
2023-02-06T13:01:30.937Z,36.68
2023-02-06T13:04:04.404Z,34.62
2023-02-06T13:06:40.788Z,35.28
2023-02-06T13:09:19.212Z,33.89
2023-02-06T13:11:47.347Z,30.22
2023-02-06T13:14:20.245Z,30.92
2023-02-06T13:16:54.914Z,30.80
2023-02-06T13:19:32.901Z,27.91
2023-02-06T13:22:23.763Z,27.45
2023-02-06T13:24:53.191Z,26.79
2023-02-06T13:27:25.096Z,25.91
2023-02-06T13:29:53.942Z,26.32
2023-02-06T13:32:50.299Z,28.06
2023-02-06T13:35:22.988Z,27.47
2023-02-06T13:37:53.265Z,26.77
2023-02-06T13:40:32.471Z,26.80
2023-02-06T13:43:04.225Z,26.68
2023-02-06T13:45:37.009Z,25.11
2023-02-06T13:48:46.990Z,26.39
2023-02-06T13:51:40.474Z,26.60
2023-02-06T13:54:52.586Z,27.34
2023-02-06T13:57:44.672Z,29.66
2023-02-06T14:00:17.244Z,30.03
2023-02-06T14:02:48.691Z,30.06
2023-02-06T14:05:20.067Z,28.58
2023-02-06T14:08:12.180Z,27.99
2023-02-06T14:10:59.312Z,27.45
2023-02-06T14:13:40.763Z,27.61
2023-02-06T14:16:32.867Z,27.75
2023-02-06T14:19:05.484Z,28.13
2023-02-06T14:21:43.996Z,28.19
2023-02-06T14:24:45.929Z,28.55
2023-02-06T14:27:24.001Z,28.08
2023-02-06T14:30:02.622Z,28.25
2023-02-06T14:32:42.689Z,27.90
2023-02-06T14:35:32.154Z,27.91
2023-02-06T14:38:29.697Z,28.81
2023-02-06T14:41:01.902Z,30.24
2023-02-06T14:43:33.579Z,31.19
2023-02-06T14:46:08.471Z,32.51
2023-02-06T14:48:40.132Z,33.76
2023-02-06T14:51:19.040Z,34.92
2023-02-06T14:53:53.511Z,35.56
2023-02-06T14:56:27.815Z,36.11
2023-02-06T14:58:57.066Z,37.56
2023-02-06T15:01:31.256Z,37.14
2023-02-06T15:04:11.534Z,36.99
2023-02-06T15:06:41.697Z,36.15
2023-02-06T15:09:23.306Z,35.07
2023-02-06T15:11:52.644Z,33.70
2023-02-06T15:14:23.840Z,33.19
2023-02-06T15:16:56.917Z,33.28
2023-02-06T15:19:26.794Z,33.97
2023-02-06T15:22:00.442Z,33.96
2023-02-06T15:24:52.654Z,34.08
2023-02-06T15:27:29.259Z,33.72
2023-02-06T15:29:58.203Z,33.58
2023-02-06T15:32:33.704Z,33.78
2023-02-06T15:35:03.714Z,34.25
2023-02-06T15:37:34.578Z,34.76
2023-02-06T15:40:18.913Z,35.17
2023-02-06T15:42:48.157Z,36.02
2023-02-06T15:45:21.988Z,36.88
2023-02-06T15:47:52.598Z,37.67
2023-02-06T15:50:24.143Z,38.49
2023-02-06T15:52:52.351Z,39.01
2023-02-06T15:55:26.641Z,39.47
2023-02-06T15:57:56.605Z,40.12
2023-02-06T16:00:27.558Z,40.75
2023-02-06T16:03:02.726Z,41.38
2023-02-06T16:05:33.353Z,41.87
2023-02-06T16:08:03.498Z,42.04
2023-02-06T16:10:34.878Z,42.31
2023-02-06T16:13:08.955Z,42.68
2023-02-06T16:15:39.360Z,42.93
2023-02-06T16:18:27.483Z,42.63
2023-02-06T16:21:21.493Z,42.84
2023-02-06T16:23:51.725Z,43.41
2023-02-06T16:26:22.822Z,43.48
2023-02-06T16:28:58.066Z,43.54
2023-02-06T16:31:27.574Z,43.78
2023-02-06T16:34:03.066Z,43.90
2023-02-06T16:36:33.584Z,44.13
2023-02-06T16:39:04.406Z,44.29
2023-02-06T16:41:34.768Z,44.45
2023-02-06T16:44:04.230Z,44.60
2023-02-06T16:46:32.621Z,45.06
2023-02-06T16:49:02.072Z,45.04
2023-02-06T16:51:33.094Z,45.15
2023-02-06T16:54:01.126Z,45.28
2023-02-06T16:56:29.186Z,45.50
2023-02-06T16:58:57.197Z,45.67
2023-02-06T17:01:29.502Z,45.77
2023-02-06T17:03:57.607Z,46.10
2023-02-06T17:06:29.227Z,46.55
2023-02-06T17:09:02.005Z,46.66
2023-02-06T17:11:30.302Z,46.78
2023-02-06T17:13:58.326Z,46.99
2023-02-06T17:16:27.478Z,46.96
2023-02-06T17:18:56.267Z,47.27
2023-02-06T17:21:28.298Z,47.33
2023-02-06T17:23:56.363Z,47.38
2023-02-06T17:26:24.726Z,47.36
2023-02-06T17:28:53.145Z,47.54
2023-02-06T17:31:21.874Z,47.49
2023-02-06T17:33:50.244Z,47.56
2023-02-06T17:36:22.378Z,47.56
2023-02-06T17:38:51.844Z,47.59
2023-02-06T17:41:19.996Z,47.73
2023-02-06T17:43:48.034Z,47.73
2023-02-06T17:46:16.147Z,47.73
2023-02-06T17:48:44.603Z,47.74
2023-02-06T17:51:13.098Z,47.79
2023-02-06T17:53:41.159Z,47.79
2023-02-06T17:56:13.279Z,47.89
2023-02-06T17:58:42.347Z,48.06
2023-02-06T18:01:12.262Z,48.04
2023-02-06T18:03:40.385Z,48.05
2023-02-06T18:06:09.131Z,48.13
2023-02-06T18:08:37.216Z,48.33
2023-02-06T18:11:11.525Z,48.41
2023-02-06T18:13:40.116Z,48.57
2023-02-06T18:16:09.121Z,48.57
2023-02-06T18:18:37.335Z,48.67
2023-02-06T18:21:05.618Z,48.77
2023-02-06T18:23:33.709Z,48.86
2023-02-06T18:26:03.574Z,48.87
2023-02-06T18:28:33.542Z,48.82
2023-02-06T18:31:02.303Z,48.92
2023-02-06T18:33:30.617Z,48.99
2023-02-06T18:35:58.763Z,49.17
2023-02-06T18:38:27.084Z,49.25
2023-02-06T18:40:55.121Z,49.33
2023-02-06T18:43:22.147Z,49.40
2023-02-06T18:45:51.563Z,49.73
2023-02-06T18:48:19.667Z,49.85
2023-02-06T18:50:47.716Z,49.85
2023-02-06T18:53:16.462Z,49.91
2023-02-06T18:55:44.535Z,50.00
2023-02-06T18:58:12.568Z,50.04
2023-02-06T19:00:42.342Z,50.09
2023-02-06T19:03:11.807Z,50.32
2023-02-06T19:05:39.964Z,50.38
2023-02-06T19:08:07.989Z,50.52
2023-02-06T19:10:36.327Z,51.18
2023-02-06T19:13:05.731Z,51.02
2023-02-06T19:15:35.866Z,50.90
2023-02-06T19:18:05.616Z,51.33
2023-02-06T19:20:35.439Z,51.37
2023-02-06T19:23:03.619Z,51.37
2023-02-06T19:25:31.688Z,51.69
2023-02-06T19:27:59.753Z,51.78
2023-02-06T19:30:27.894Z,52.16
2023-02-06T19:32:55.929Z,52.07
2023-02-06T19:35:24.301Z,52.13
2023-02-06T19:37:53.806Z,52.06
2023-02-06T19:40:22.026Z,52.01
2023-02-06T19:42:50.092Z,52.04
2023-02-06T19:45:18.226Z,52.11
2023-02-06T19:47:46.262Z,51.96
2023-02-06T19:50:14.559Z,52.19
2023-02-06T19:52:42.627Z,52.36
2023-02-06T19:55:12.405Z,52.48
2023-02-06T19:57:40.704Z,52.49
2023-02-06T20:00:10.205Z,52.40
2023-02-06T20:02:39.090Z,52.42
2023-02-06T20:05:08.081Z,52.65
2023-02-06T20:07:36.242Z,52.81
2023-02-06T20:10:04.409Z,52.74
2023-02-06T20:12:34.173Z,52.86
2023-02-06T20:15:02.353Z,53.00
2023-02-06T20:17:30.385Z,52.90
2023-02-06T20:20:00.662Z,52.84
2023-02-06T20:22:28.988Z,52.81
2023-02-06T20:24:57.153Z,52.75
2023-02-06T20:27:25.254Z,52.82
2023-02-06T20:29:54.708Z,52.75
2023-02-06T20:32:22.780Z,52.75
2023-02-06T20:34:50.830Z,52.78
2023-02-06T20:37:18.912Z,52.82
2023-02-06T20:39:47.034Z,52.94
2023-02-06T20:42:15.446Z,53.10
2023-02-06T20:44:43.477Z,53.25
2023-02-06T20:47:12.951Z,53.19
2023-02-06T20:49:41.960Z,53.16
2023-02-06T20:52:10.116Z,53.27
2023-02-06T20:54:38.259Z,53.35
2023-02-06T20:57:06.275Z,53.66
2023-02-06T20:59:34.356Z,53.60
2023-02-06T21:02:02.445Z,53.45
2023-02-06T21:04:34.583Z,53.41
2023-02-06T21:07:02.700Z,53.81
2023-02-06T21:09:30.832Z,53.92
2023-02-06T21:11:58.866Z,54.00
2023-02-06T21:14:29.928Z,54.02
2023-02-06T21:16:58.289Z,54.21
2023-02-06T21:19:28.797Z,54.42
2023-02-06T21:21:58.333Z,54.56
2023-02-06T21:24:26.345Z,54.74
2023-02-06T21:26:54.768Z,54.77
2023-02-06T21:29:23.756Z,55.00
2023-02-06T21:32:00.594Z,55.09
2023-02-06T21:34:35.441Z,55.10
2023-02-06T21:37:05.908Z,55.64
2023-02-06T21:39:34.345Z,56.07
2023-02-06T21:42:02.392Z,56.43
2023-02-06T21:44:30.473Z,56.51
2023-02-06T21:46:58.548Z,56.76
2023-02-06T21:49:26.719Z,56.93
2023-02-06T21:51:56.174Z,56.90
2023-02-06T21:54:25.856Z,56.90
2023-02-06T21:56:54.619Z,57.10
2023-02-06T21:59:22.791Z,57.24
2023-02-06T22:01:50.928Z,57.32
2023-02-06T22:04:18.966Z,57.31
2023-02-06T22:06:48.968Z,57.15
2023-02-06T22:09:19.049Z,57.28
2023-02-06T22:11:48.895Z,57.75
2023-02-06T22:14:18.712Z,57.77
2023-02-06T22:16:47.752Z,57.72
2023-02-06T22:19:17.093Z,57.87
2023-02-06T22:21:45.893Z,57.83
2023-02-06T22:24:14.498Z,58.21
2023-02-06T22:26:43.462Z,58.57
2023-02-06T22:29:15.935Z,58.72
2023-02-06T22:31:45.042Z,59.61
2023-02-06T22:34:16.293Z,59.74
2023-02-06T22:36:45.723Z,59.76
2023-02-06T22:39:15.732Z,59.28
2023-02-06T22:41:45.651Z,59.21
2023-02-06T22:44:17.253Z,59.08
2023-02-06T22:46:47.161Z,59.87
2023-02-06T22:49:15.813Z,59.46
2023-02-06T22:51:44.469Z,59.45
2023-02-06T22:54:13.298Z,59.58
2023-02-06T22:56:42.494Z,59.38
2023-02-06T22:59:12.913Z,59.27
2023-02-06T23:01:44.725Z,59.82
2023-02-06T23:04:16.449Z,59.37
2023-02-06T23:06:45.467Z,59.22
2023-02-06T23:09:17.396Z,59.06
2023-02-06T23:11:46.223Z,58.77
2023-02-06T23:14:16.514Z,58.67
2023-02-06T23:16:46.770Z,58.64
2023-02-06T23:19:16.571Z,58.77
2023-02-06T23:21:47.098Z,58.73
2023-02-06T23:24:16.911Z,58.51
2023-02-06T23:26:47.861Z,58.29
2023-02-06T23:29:18.061Z,58.09
2023-02-06T23:31:49.101Z,57.93
2023-02-06T23:34:19.201Z,57.93
2023-02-06T23:36:48.922Z,57.79
2023-02-06T23:39:17.172Z,57.74
2023-02-06T23:41:45.474Z,57.67
2023-02-06T23:44:14.087Z,57.71
2023-02-06T23:46:42.959Z,57.74
2023-02-06T23:49:13.005Z,57.78
2023-02-06T23:51:41.366Z,57.82
2023-02-06T23:54:10.493Z,57.80
2023-02-06T23:56:39.268Z,58.90
2023-02-06T23:59:07.721Z,58.93
